Time,TemperatureF,DewpointF,PressureIn,WindDirection,WindDirectionDegrees,WindSpeedMPH,WindSpeedGustMPH,Humidity,HourlyPrecipIn,Conditions,Clouds,dailyrainin,SoftwareType,DateUTC
2013-07-12 00:02:00,71.3,69.0,29.94,NE,46,1.0,-999.0,93,-99.99,,,0.04,weatherlink.com 1.10,2013-07-12 04:02:00,
2013-07-12 00:17:00,71.0,69.0,29.94,NNE,24,3.0,-999.0,94,-99.99,,,0.04,weatherlink.com 1.10,2013-07-12 04:17:00,
2013-07-12 00:32:00,70.5,69.0,29.95,NNE,14,5.0,-999.0,94,-99.99,,,0.04,weatherlink.com 1.10,2013-07-12 04:32:00,
2013-07-12 00:47:00,70.1,69.0,29.95,NE,37,5.0,-999.0,95,-99.99,,,0.04,weatherlink.com 1.10,2013-07-12 04:47:00,
2013-07-12 01:02:00,69.8,68.0,29.95,NNE,31,4.0,-999.0,95,-99.99,,,0.04,weatherlink.com 1.10,2013-07-12 05:02:00,
2013-07-12 01:17:00,69.7,68.0,29.95,NNE,12,4.0,-999.0,95,-99.99,,,0.04,weatherlink.com 1.10,2013-07-12 05:17:00,
2013-07-12 01:40:00,69.8,68.0,29.95,North,5,6.0,-999.0,94,-99.99,,,0.04,weatherlink.com 1.10,2013-07-12 05:40:00,
2013-07-12 01:47:00,69.7,68.0,29.95,NNE,25,8.0,-999.0,94,-99.99,,,0.04,weatherlink.com 1.10,2013-07-12 05:47:00,
2013-07-12 02:02:00,69.8,68.0,29.96,NNW,340,6.0,-999.0,94,-99.99,,,0.04,weatherlink.com 1.10,2013-07-12 06:02:00,
2013-07-12 02:17:00,69.8,68.0,29.96,NNE,16,8.0,-999.0,93,-99.99,,,0.04,weatherlink.com 1.10,2013-07-12 06:17:00,
2013-07-12 02:33:00,70.2,67.0,29.96,North,11,6.0,-999.0,89,-99.99,,,0.04,weatherlink.com 1.10,2013-07-12 06:33:00,
2013-07-12 02:48:00,70.5,66.0,29.97,NE,37,11.0,-999.0,85,-99.99,,,0.04,weatherlink.com 1.10,2013-07-12 06:48:00,
2013-07-12 03:03:00,70.4,65.0,29.97,NNE,17,9.0,-999.0,84,-99.99,,,0.04,weatherlink.com 1.10,2013-07-12 07:03:00,
2013-07-12 03:18:00,70.2,66.0,29.98,NE,48,11.0,-999.0,85,-99.99,,,0.04,weatherlink.com 1.10,2013-07-12 07:18:00,
2013-07-12 03:33:00,69.9,65.0,29.99,NE,47,8.0,-999.0,84,-99.99,,,0.04,weatherlink.com 1.10,2013-07-12 07:33:00,
2013-07-12 03:48:00,69.3,65.0,30.00,NE,38,8.0,-999.0,86,-99.99,,,0.04,weatherlink.com 1.10,2013-07-12 07:48:00,
2013-07-12 04:03:00,69.0,65.0,30.01,NE,51,4.0,-999.0,87,-99.99,,,0.04,weatherlink.com 1.10,2013-07-12 08:03:00,
2013-07-12 04:18:00,68.9,65.0,30.01,NE,42,9.0,-999.0,86,-99.99,,,0.04,weatherlink.com 1.10,2013-07-12 08:18:00,
2013-07-12 04:33:00,69.2,64.0,30.01,NE,55,7.0,-999.0,83,-99.99,,,0.04,weatherlink.com 1.10,2013-07-12 08:33:00,
2013-07-12 04:48:00,69.2,63.0,30.02,NE,49,11.0,-999.0,81,-99.99,,,0.04,weatherlink.com 1.10,2013-07-12 08:48:00,
2013-07-12 05:04:00,69.4,63.0,30.03,NE,46,7.0,-999.0,79,-99.99,,,0.04,weatherlink.com 1.10,2013-07-12 09:04:00,
2013-07-12 05:19:00,69.4,61.0,30.03,NNE,28,11.0,-999.0,75,-99.99,,,0.04,weatherlink.com 1.10,2013-07-12 09:19:00,
2013-07-12 05:34:00,69.4,61.0,30.03,NNW,346,10.0,-999.0,75,-99.99,,,0.04,weatherlink.com 1.10,2013-07-12 09:34:00,
2013-07-12 05:49:00,69.2,61.0,30.04,NE,38,8.0,-999.0,75,-99.99,,,0.04,weatherlink.com 1.10,2013-07-12 09:49:00,
2013-07-12 06:04:00,68.9,61.0,30.05,NNE,23,6.0,-999.0,75,-99.99,,,0.04,weatherlink.com 1.10,2013-07-12 10:04:00,
2013-07-12 06:19:00,68.8,61.0,30.05,NE,41,8.0,-999.0,75,-99.99,,,0.04,weatherlink.com 1.10,2013-07-12 10:19:00,
2013-07-12 06:34:00,69.0,61.0,30.05,NW,325,7.0,-999.0,75,-99.99,,,0.04,weatherlink.com 1.10,2013-07-12 10:34:00,
2013-07-12 06:49:00,69.3,61.0,30.05,NE,53,14.0,-999.0,74,-99.99,,,0.00,weatherlink.com 1.10,2013-07-12 10:49:00,
2013-07-12 07:04:00,69.0,60.0,30.06,NE,38,17.0,-999.0,74,-99.99,,,0.00,weatherlink.com 1.10,2013-07-12 11:04:00,
2013-07-12 07:19:00,69.0,60.0,30.07,North,360,8.0,-999.0,74,-99.99,,,0.00,weatherlink.com 1.10,2013-07-12 11:19:00,
2013-07-12 07:34:00,69.0,60.0,30.07,NE,54,13.0,-999.0,73,-99.99,,,0.00,weatherlink.com 1.10,2013-07-12 11:34:00,
2013-07-12 07:50:00,68.8,60.0,30.09,NE,39,9.0,-999.0,73,-99.99,,,0.00,weatherlink.com 1.10,2013-07-12 11:50:00,
2013-07-12 08:05:00,69.2,60.0,30.09,ENE,57,19.0,-999.0,73,-99.99,,,0.00,weatherlink.com 1.10,2013-07-12 12:05:00,
2013-07-12 08:20:00,68.8,60.0,30.09,NE,54,17.0,-999.0,74,-99.99,,,0.00,weatherlink.com 1.10,2013-07-12 12:20:00,
2013-07-12 08:35:00,68.8,61.0,30.09,NE,49,11.0,-999.0,75,-99.99,,,0.00,weatherlink.com 1.10,2013-07-12 12:35:00,
2013-07-12 08:50:00,68.7,61.0,30.09,NE,52,14.0,-999.0,75,-99.99,,,0.00,weatherlink.com 1.10,2013-07-12 12:50:00,
2013-07-12 09:05:00,68.8,60.0,30.10,NE,43,13.0,-999.0,74,-99.99,,,0.00,weatherlink.com 1.10,2013-07-12 13:05:00,
2013-07-12 09:20:00,68.7,61.0,30.11,NE,45,20.0,-999.0,75,-99.99,,,0.00,weatherlink.com 1.10,2013-07-12 13:20:00,
2013-07-12 09:35:00,68.7,61.0,30.11,NE,46,11.0,-999.0,75,-99.99,,,0.00,weatherlink.com 1.10,2013-07-12 13:35:00,
2013-07-12 09:50:00,68.8,60.0,30.11,East,99,15.0,-999.0,73,-99.99,,,0.00,weatherlink.com 1.10,2013-07-12 13:50:00,
2013-07-12 10:05:00,69.4,60.0,30.12,NE,46,2.0,-999.0,73,-99.99,,,0.00,weatherlink.com 1.10,2013-07-12 14:05:00,
2013-07-12 10:20:00,70.7,60.0,30.13,ENE,70,6.0,-999.0,70,-99.99,,,0.00,weatherlink.com 1.10,2013-07-12 14:20:00,
2013-07-12 10:36:00,69.7,60.0,30.14,ENE,75,6.0,-999.0,72,-99.99,,,0.00,weatherlink.com 1.10,2013-07-12 14:36:00,
2013-07-12 10:51:00,69.0,59.0,30.14,NNE,32,12.0,-999.0,71,-99.99,,,0.00,weatherlink.com 1.10,2013-07-12 14:51:00,
2013-07-12 11:06:00,68.9,59.0,30.14,East,90,14.0,-999.0,71,-99.99,,,0.00,weatherlink.com 1.10,2013-07-12 15:06:00,
2013-07-12 11:21:00,68.7,59.0,30.14,East,86,7.0,-999.0,72,-99.99,,,0.00,weatherlink.com 1.10,2013-07-12 15:21:00,
2013-07-12 11:36:00,69.4,60.0,30.15,ENE,57,11.0,-999.0,72,-99.99,,,0.00,weatherlink.com 1.10,2013-07-12 15:36:00,
2013-07-12 11:51:00,68.5,59.0,30.16,North,9,8.0,-999.0,72,-99.99,,,0.00,weatherlink.com 1.10,2013-07-12 15:51:00,
2013-07-12 12:06:00,69.0,60.0,30.15,East,96,4.0,-999.0,72,-99.99,,,0.00,weatherlink.com 1.10,2013-07-12 16:06:00,
2013-07-12 12:21:00,69.3,60.0,30.16,NE,51,13.0,-999.0,71,-99.99,,,0.00,weatherlink.com 1.10,2013-07-12 16:21:00,
2013-07-12 12:36:00,69.5,59.0,30.15,NE,56,7.0,-999.0,70,-99.99,,,0.00,weatherlink.com 1.10,2013-07-12 16:36:00,
2013-07-12 13:06:00,70.8,60.0,30.15,NE,49,12.0,-999.0,68,-99.99,,,0.00,weatherlink.com 1.10,2013-07-12 17:06:00,
2013-07-12 13:37:00,71.1,60.0,30.15,NE,56,13.0,-999.0,68,-99.99,,,0.00,weatherlink.com 1.10,2013-07-12 17:37:00,
2013-07-12 13:52:00,70.8,60.0,30.15,NNE,20,9.0,-999.0,69,-99.99,,,0.00,weatherlink.com 1.10,2013-07-12 17:52:00,
2013-07-12 14:07:00,72.4,61.0,30.15,NE,54,10.0,-999.0,67,-99.99,,,0.00,weatherlink.com 1.10,2013-07-12 18:07:00,
2013-07-12 14:37:00,73.0,61.0,30.15,NE,41,12.0,-999.0,67,-99.99,,,0.00,weatherlink.com 1.10,2013-07-12 18:37:00,
2013-07-12 14:52:00,71.8,61.0,30.15,NNE,31,8.0,-999.0,69,-99.99,,,0.00,weatherlink.com 1.10,2013-07-12 18:52:00,
2013-07-12 15:07:00,72.4,61.0,30.15,East,80,3.0,-999.0,67,-99.99,,,0.00,weatherlink.com 1.10,2013-07-12 19:07:00,
2013-07-12 15:22:00,73.8,60.0,30.16,ENE,67,5.0,-999.0,62,-99.99,,,0.00,weatherlink.com 1.10,2013-07-12 19:22:00,
2013-07-12 15:52:00,75.6,60.0,30.15,East,90,8.0,-999.0,58,-99.99,,,0.00,weatherlink.com 1.10,2013-07-12 19:52:00,
2013-07-12 16:08:00,75.3,60.0,30.16,ESE,110,0.0,-999.0,59,-99.99,,,0.00,weatherlink.com 1.10,2013-07-12 20:08:00,
2013-07-12 16:23:00,74.0,59.0,30.15,East,79,0.0,-999.0,59,-99.99,,,0.00,weatherlink.com 1.10,2013-07-12 20:23:00,
2013-07-12 16:38:00,74.2,60.0,30.15,ENE,71,7.0,-999.0,61,-99.99,,,0.00,weatherlink.com 1.10,2013-07-12 20:38:00,
2013-07-12 17:08:00,73.1,60.0,30.16,NE,34,7.0,-999.0,64,-99.99,,,0.00,weatherlink.com 1.10,2013-07-12 21:08:00,
2013-07-12 17:23:00,72.8,59.0,30.16,ENE,59,10.0,-999.0,63,-99.99,,,0.00,weatherlink.com 1.10,2013-07-12 21:23:00,
2013-07-12 17:38:00,72.2,59.0,30.17,NE,40,1.0,-999.0,64,-99.99,,,0.00,weatherlink.com 1.10,2013-07-12 21:38:00,
2013-07-12 17:53:00,72.0,59.0,30.17,NE,51,8.0,-999.0,64,-99.99,,,0.00,weatherlink.com 1.10,2013-07-12 21:53:00,
2013-07-12 18:08:00,72.6,59.0,30.16,East,92,11.0,-999.0,62,-99.99,,,0.00,weatherlink.com 1.10,2013-07-12 22:08:00,
2013-07-12 18:53:00,70.1,61.0,30.17,SE,132,7.0,-999.0,73,-99.99,,,0.00,weatherlink.com 1.10,2013-07-12 22:53:00,
2013-07-12 19:08:00,69.9,61.0,30.18,ENE,59,0.0,-999.0,74,-99.99,,,0.00,weatherlink.com 1.10,2013-07-12 23:08:00,
2013-07-12 19:24:00,69.4,61.0,30.17,ENE,74,4.0,-999.0,75,-99.99,,,0.00,weatherlink.com 1.10,2013-07-12 23:24:00,
2013-07-12 19:39:00,68.9,62.0,30.17,East,92,2.0,-999.0,78,-99.99,,,0.00,weatherlink.com 1.10,2013-07-12 23:39:00,
2013-07-12 19:54:00,68.3,62.0,30.18,ESE,112,12.0,-999.0,79,-99.99,,,0.00,weatherlink.com 1.10,2013-07-12 23:54:00,
2013-07-12 20:54:00,67.7,61.0,30.19,ENE,59,6.0,-999.0,80,-99.99,,,0.00,weatherlink.com 1.10,2013-07-13 00:54:00,
2013-07-12 21:09:00,67.7,62.0,30.19,East,83,3.0,-999.0,81,-99.99,,,0.00,weatherlink.com 1.10,2013-07-13 01:09:00,
2013-07-12 21:24:00,67.7,62.0,30.20,East,90,4.0,-999.0,81,-99.99,,,0.00,weatherlink.com 1.10,2013-07-13 01:24:00,
2013-07-12 22:10:00,67.6,62.0,30.20,ESE,121,2.0,-999.0,83,-99.99,,,0.00,weatherlink.com 1.10,2013-07-13 02:10:00,
2013-07-12 22:25:00,67.5,63.0,30.21,SE,124,0.0,-999.0,84,-99.99,,,0.00,weatherlink.com 1.10,2013-07-13 02:25:00,
2013-07-12 22:40:00,67.2,63.0,30.20,ESE,111,1.0,-999.0,86,-99.99,,,0.00,weatherlink.com 1.10,2013-07-13 02:40:00,
2013-07-12 22:55:00,67.3,63.0,30.21,ESE,113,2.0,-999.0,86,-99.99,,,0.00,weatherlink.com 1.10,2013-07-13 02:55:00,
2013-07-12 23:10:00,67.2,63.0,30.22,ESE,102,0.0,-999.0,87,-99.99,,,0.00,weatherlink.com 1.10,2013-07-13 03:10:00,
2013-07-12 23:25:00,67.2,63.0,30.21,ESE,119,2.0,-999.0,87,-99.99,,,0.00,weatherlink.com 1.10,2013-07-13 03:25:00,
2013-07-12 23:40:00,67.2,64.0,30.21,ESE,121,2.0,-999.0,88,-99.99,,,0.00,weatherlink.com 1.10,2013-07-13 03:40:00,
2013-07-12 23:55:00,66.9,64.0,30.22,ESE,108,0.0,-999.0,89,-99.99,,,0.00,weatherlink.com 1.10,2013-07-13 03:55:00,